Time;durP1;ratioP1;P1;durP2;ratioP2;P2;SDS_P1;SDS_P2;PMS_P1;PMS_P2;Temp;Humidity;BMP_temperature;BMP_pressure;BME280_temperature;BME280_humidity;BME280_pressure;Samples;Min_cycle;Max_cycle;Signal;HPM_P1;HPM_P2
2022/12/19 00:01:56;;;;;;;;;;;;;;;-1.15;99.14;101124.81;4938163;29;19962;-69
2022/12/19 00:04:22;;;;;;;;;;;;;;;-1.11;98.97;101137.13;4938783;29;19919;-69
2022/12/19 00:06:47;;;;;;;;;;;;;;;-1.12;98.70;101134.47;4935978;29;19915;-69
2022/12/19 00:09:12;;;;;;;;;;;;;;;-1.10;98.99;101127.59;4937333;29;19922;-69
2022/12/19 00:11:38;;;;;;;;;;;;;;;-1.09;98.94;101119.81;4940471;29;19926;-69
2022/12/19 00:14:03;;;;;;;;;;;;;;;-1.05;98.76;101137.31;4936929;29;19911;-69
2022/12/19 00:16:29;;;;;;;;;;;;;;;-1.03;98.82;101132.13;4936051;29;19957;-69
2022/12/19 00:18:55;;;;;;;;;;;;;;;-1.02;98.82;101129.56;4978320;28;19918;-69
2022/12/19 00:21:21;;;;;;;;;;;;;;;-0.98;98.80;101123.63;4955042;29;20282;-69
2022/12/19 00:23:47;;;;;;;;;;;;;;;-0.96;99.18;101116.72;4945199;29;19921;-69
2022/12/19 00:26:14;;;;;;;;;;;;;;;-0.94;99.31;101107.19;4936055;29;19911;-68
2022/12/19 00:28:39;;;;;;;;;;;;;;;-0.90;98.82;101119.50;4936204;29;20382;-68
2022/12/19 00:31:05;;;;;;;;;;;;;;;-0.86;99.35;101117.88;4938971;29;19921;-69
2022/12/19 00:33:30;;;;;;;;;;;;;;;-0.83;99.19;101113.66;4936895;29;19919;-69
2022/12/19 00:35:56;;;;;;;;;;;;;;;-0.82;99.77;101118.03;4936923;29;19942;-69
2022/12/19 00:38:22;;;;;;;;;;;;;;;-0.79;99.07;101114.63;4936688;29;20378;-68
2022/12/19 00:40:47;;;;;;;;;;;;;;;-0.76;99.17;101109.50;4936613;29;19989;-69
2022/12/19 00:43:12;;;;;;;;;;;;;;;-0.76;99.32;101105.16;4938138;29;20283;-68
2022/12/19 00:45:37;;;;;;;;;;;;;;;-0.76;99.37;101102.56;4939287;29;19915;-69
2022/12/19 00:48:03;;;;;;;;;;;;;;;-0.75;99.87;101112.16;4936473;29;19922;-69
2022/12/19 00:50:28;;;;;;;;;;;;;;;-0.72;99.52;101101.78;4934397;29;19911;-68
2022/12/19 00:52:53;;;;;;;;;;;;;;;-0.68;99.73;101103.66;4938229;29;20330;-69
2022/12/19 00:55:18;;;;;;;;;;;;;;;-0.65;99.64;101097.63;4936401;29;19911;-69
2022/12/19 00:57:44;;;;;;;;;;;;;;;-0.62;99.59;101096.00;4936352;29;19911;-69
2022/12/19 01:00:09;;;;;;;;;;;;;;;-0.67;99.63;101100.19;4936339;29;19969;-69
2022/12/19 01:02:34;;;;;;;;;;;;;;;-0.65;99.57;101093.31;4938633;29;19915;-69
2022/12/19 01:05:00;;;;;;;;;;;;;;;-0.62;99.46;101103.81;4966982;28;19979;-69
2022/12/19 01:07:25;;;;;;;;;;;;;;;-0.64;99.60;101095.06;4936160;29;19926;-68
2022/12/19 01:09:50;;;;;;;;;;;;;;;-0.59;99.77;101093.47;4950719;29;19922;-69
2022/12/19 01:12:48;;;;;;;;;;;;;;;-0.59;100.00;101088.25;4938013;29;19918;-69
2022/12/19 01:15:07;;;;;;;;;;;;;;;-0.59;99.66;101082.13;4936818;29;19911;-69
2022/12/19 01:17:33;;;;;;;;;;;;;;;-0.60;99.57;101076.03;4936788;29;19949;-69
2022/12/19 01:19:59;;;;;;;;;;;;;;;-0.57;99.65;101073.50;4936572;29;19946;-70
2022/12/19 01:22:24;;;;;;;;;;;;;;;-0.52;99.95;101081.47;4966324;28;19949;-69
2022/12/19 01:24:49;;;;;;;;;;;;;;;-0.50;99.67;101087.63;4937509;29;20275;-68
2022/12/19 01:27:15;;;;;;;;;;;;;;;-0.46;99.88;101084.28;4935741;29;19914;-69
2022/12/19 01:29:40;;;;;;;;;;;;;;;-0.45;100.00;101076.47;4937863;29;19915;-68
2022/12/19 01:32:05;;;;;;;;;;;;;;;-0.43;99.69;101071.28;4935784;29;20295;-69
2022/12/19 01:34:30;;;;;;;;;;;;;;;-0.40;99.69;101077.50;4935566;29;19911;-68
2022/12/19 01:36:56;;;;;;;;;;;;;;;-0.41;99.29;101074.81;4937774;29;20729;-69
2022/12/19 01:39:21;;;;;;;;;;;;;;;-0.39;99.87;101076.63;4935034;29;19918;-68
2022/12/19 01:41:46;;;;;;;;;;;;;;;-0.34;99.51;101068.91;4936568;29;19924;-68
2022/12/19 01:44:12;;;;;;;;;;;;;;;-0.33;99.45;101066.34;4934865;29;19930;-68
2022/12/19 01:46:38;;;;;;;;;;;;;;;-0.32;100.00;101062.91;4965319;28;19918;-68
2022/12/19 01:49:05;;;;;;;;;;;;;;;-0.28;99.95;101056.91;4935961;29;19915;-68
2022/12/19 01:51:36;;;;;;;;;;;;;;;-0.21;100.00;101042.25;4933991;29;19914;-68
2022/12/19 01:54:03;;;;;;;;;;;;;;;-0.22;100.00;101046.63;4935776;29;19964;-68
2022/12/19 01:56:31;;;;;;;;;;;;;;;-0.18;100.00;101056.28;4935297;29;19942;-68
2022/12/19 01:58:58;;;;;;;;;;;;;;;-0.16;99.78;101062.47;4935240;29;19919;-69
2022/12/19 02:01:24;;;;;;;;;;;;;;;-0.16;100.00;101054.63;4937344;29;19919;-65
2022/12/19 02:03:49;;;;;;;;;;;;;;;-0.14;100.00;101066.00;4933842;29;19957;-65
2022/12/19 02:06:15;;;;;;;;;;;;;;;-0.13;100.00;101059.91;4935436;29;19915;-65
2022/12/19 02:08:41;;;;;;;;;;;;;;;-0.14;100.00;101066.00;4935382;29;19922;-65
2022/12/19 02:11:06;;;;;;;;;;;;;;;-0.12;100.00;101069.56;4935201;29;20343;-65
2022/12/19 02:13:32;;;;;;;;;;;;;;;-0.13;100.00;101069.47;4935987;29;19923;-65
2022/12/19 02:16:00;;;;;;;;;;;;;;;-0.11;100.00;101062.56;4936784;29;19914;-65
2022/12/19 02:18:32;;;;;;;;;;;;;;;-0.11;100.00;101053.00;4934713;29;20046;-64
2022/12/19 02:20:57;;;;;;;;;;;;;;;-0.13;100.00;101054.69;4934881;29;19918;-65
2022/12/19 02:23:35;;;;;;;;;;;;;;;-0.11;100.00;101053.00;4936275;29;19918;-66
2022/12/19 02:26:29;;;;;;;;;;;;;;;-0.11;100.00;101053.00;4934727;29;19918;-65
2022/12/19 02:29:00;;;;;;;;;;;;;;;-0.04;100.00;101059.28;4931874;29;19918;-65
2022/12/19 02:31:35;;;;;;;;;;;;;;;-0.03;100.00;101061.94;4965488;28;19914;-65
2022/12/19 02:34:18;;;;;;;;;;;;;;;-0.03;100.00;101069.78;4934648;29;19919;-65
2022/12/19 02:36:52;;;;;;;;;;;;;;;-0.02;100.00;101074.16;4933567;29;19954;-65
2022/12/19 02:39:22;;;;;;;;;;;;;;;-0.01;100.00;101059.38;4934938;29;19915;-65
2022/12/19 02:41:54;;;;;;;;;;;;;;;0.00;100.00;101059.41;4932948;29;19978;-66
2022/12/19 02:44:25;;;;;;;;;;;;;;;0.03;100.00;101062.94;4947194;29;20449;-66
2022/12/19 02:46:51;;;;;;;;;;;;;;;0.07;100.00;101062.19;4933850;29;19915;-66
2022/12/19 02:49:16;;;;;;;;;;;;;;;0.10;100.00;101076.22;4934571;29;20295;-65
2022/12/19 02:51:41;;;;;;;;;;;;;;;0.13;100.00;101083.25;4932525;29;19974;-66
2022/12/19 02:54:08;;;;;;;;;;;;;;;0.11;100.00;101080.63;4931949;29;19936;-66
2022/12/19 02:56:33;;;;;;;;;;;;;;;0.11;100.00;101071.88;4935078;29;19919;-65
2022/12/19 02:59:04;;;;;;;;;;;;;;;0.07;100.00;101062.19;4933667;29;19917;-66
2022/12/19 03:01:44;;;;;;;;;;;;;;;0.02;100.00;101059.44;4935986;29;20474;-65
2022/12/19 03:04:09;;;;;;;;;;;;;;;0.06;100.00;101065.63;4933805;29;19966;-65
2022/12/19 03:06:57;;;;;;;;;;;;;;;0.07;100.00;101063.06;4934353;29;19919;-65
2022/12/19 03:09:34;;;;;;;;;;;;;;;0.09;100.00;101061.38;4933722;29;19911;-66
2022/12/19 03:12:05;;;;;;;;;;;;;;;0.08;100.00;101050.88;4936270;29;20006;-65
2022/12/19 03:14:31;;;;;;;;;;;;;;;0.10;100.00;101051.81;4937229;29;19915;-65
2022/12/19 03:17:01;;;;;;;;;;;;;;;0.13;100.00;101062.34;4942738;28;19962;-66
2022/12/19 03:19:26;;;;;;;;;;;;;;;0.19;100.00;101057.25;4940409;29;19915;-65
2022/12/19 03:21:51;;;;;;;;;;;;;;;0.17;100.00;101057.22;4942749;29;19961;-66
2022/12/19 03:24:17;;;;;;;;;;;;;;;0.18;100.00;101047.66;4970994;28;19925;-66
2022/12/19 03:26:45;;;;;;;;;;;;;;;0.18;100.00;101047.66;4940373;29;20435;-66
2022/12/19 03:29:29;;;;;;;;;;;;;;;0.18;100.00;101037.19;4941126;29;19969;-66
2022/12/19 03:31:56;;;;;;;;;;;;;;;0.20;100.00;101032.88;4940274;29;19925;-65
2022/12/19 03:34:24;;;;;;;;;;;;;;;0.24;100.00;101048.69;4941974;29;19965;-65
2022/12/19 03:36:53;;;;;;;;;;;;;;;0.21;100.00;101029.41;4940361;29;19914;-66
2022/12/19 03:39:19;;;;;;;;;;;;;;;0.23;100.00;101030.34;4940144;29;19915;-67
2022/12/19 03:44:34;;;;;;;;;;;;;;;0.28;99.89;101026.97;4941875;29;19922;-66
2022/12/19 03:47:19;;;;;;;;;;;;;;;0.29;99.82;101015.69;4938631;29;19989;-65
2022/12/19 03:49:44;;;;;;;;;;;;;;;0.27;99.88;101011.25;4942395;29;19915;-65
2022/12/19 03:52:16;;;;;;;;;;;;;;;0.27;99.94;101024.31;4940131;29;19920;-65
2022/12/19 03:54:47;;;;;;;;;;;;;;;0.30;99.90;101021.81;4941928;29;19925;-65
2022/12/19 03:57:39;;;;;;;;;;;;;;;0.31;100.00;101018.31;4971070;28;19921;-65
2022/12/19 04:00:06;;;;;;;;;;;;;;;0.33;99.90;101024.50;4924737;29;19911;-66
2022/12/19 04:02:33;;;;;;;;;;;;;;;0.34;100.00;101021.91;4942700;29;19915;-65
2022/12/19 04:05:03;;;;;;;;;;;;;;;0.32;100.00;101020.09;4939832;29;19942;-66
2022/12/19 04:07:28;;;;;;;;;;;;;;;0.35;100.00;101022.78;4941878;29;19954;-65
2022/12/19 04:09:56;;;;;;;;;;;;;;;0.37;100.00;101027.22;4939088;29;19957;-64
2022/12/19 04:12:24;;;;;;;;;;;;;;;0.36;100.00;101038.53;4939185;29;19978;-65
2022/12/19 04:14:50;;;;;;;;;;;;;;;0.36;100.00;101040.25;4940846;29;19914;-66
2022/12/19 04:17:18;;;;;;;;;;;;;;;0.39;100.00;101035.09;4969845;28;19929;-65
2022/12/19 04:19:46;;;;;;;;;;;;;;;0.41;100.00;101022.94;4941442;29;20330;-66
2022/12/19 04:22:30;;;;;;;;;;;;;;;0.40;100.00;101019.44;4939172;29;20001;-65
2022/12/19 04:24:57;;;;;;;;;;;;;;;0.47;100.00;101025.69;4941859;29;19921;-66
2022/12/19 04:27:22;;;;;;;;;;;;;;;0.48;100.00;101024.84;4936241;29;19911;-65
2022/12/19 04:29:50;;;;;;;;;;;;;;;0.50;100.00;101031.00;4936929;29;20397;-65
2022/12/19 04:32:16;;;;;;;;;;;;;;;0.55;100.00;101034.59;4938197;29;20268;-65
2022/12/19 04:34:42;;;;;;;;;;;;;;;0.55;100.00;101037.22;4937046;29;20017;-65
2022/12/19 04:37:07;;;;;;;;;;;;;;;0.54;100.00;101035.47;4938795;29;20339;-65
2022/12/19 04:39:32;;;;;;;;;;;;;;;0.57;100.00;101035.53;4936294;29;19919;-66
2022/12/19 04:41:57;;;;;;;;;;;;;;;0.58;100.00;101029.44;4936714;29;19915;-66
2022/12/19 04:44:23;;;;;;;;;;;;;;;0.61;100.00;101032.16;4938598;29;19910;-66
2022/12/19 04:46:48;;;;;;;;;;;;;;;0.63;100.00;101031.31;4936599;29;20005;-65
2022/12/19 04:49:14;;;;;;;;;;;;;;;0.63;100.00;101036.56;4938406;29;19917;-65
2022/12/19 04:51:39;;;;;;;;;;;;;;;0.63;100.00;101033.94;4936451;29;19919;-65
2022/12/19 04:54:04;;;;;;;;;;;;;;;0.64;100.00;101026.97;4936203;29;19917;-66
2022/12/19 04:56:29;;;;;;;;;;;;;;;0.66;100.00;101030.53;4938821;29;19915;-66
2022/12/19 04:58:56;;;;;;;;;;;;;;;0.69;100.00;101013.13;4936311;29;19930;-65
2022/12/19 05:01:21;;;;;;;;;;;;;;;0.68;100.00;101019.22;4938631;29;19946;-65
2022/12/19 05:03:46;;;;;;;;;;;;;;;0.66;100.00;101020.91;4966706;28;20338;-66
2022/12/19 05:06:12;;;;;;;;;;;;;;;0.70;100.00;101011.41;4936256;29;19922;-65
2022/12/19 05:08:39;;;;;;;;;;;;;;;0.73;100.00;101011.47;4938398;29;20368;-65
2022/12/19 05:11:04;;;;;;;;;;;;;;;0.71;100.00;101003.56;4935465;29;20001;-65
2022/12/19 05:13:30;;;;;;;;;;;;;;;0.72;100.00;100999.22;4936857;29;20036;-65
2022/12/19 05:15:56;;;;;;;;;;;;;;;0.74;100.00;100989.69;4934520;29;19914;-66
2022/12/19 05:18:21;;;;;;;;;;;;;;;0.76;100.00;100999.31;4934762;29;20406;-65
2022/12/19 05:20:49;;;;;;;;;;;;;;;0.74;100.00;100981.84;4936839;29;19911;-66
2022/12/19 05:23:15;;;;;;;;;;;;;;;0.76;100.00;100987.97;4934971;29;19915;-65
2022/12/19 05:25:40;;;;;;;;;;;;;;;0.78;100.00;100984.53;4936102;29;19970;-65
2022/12/19 05:28:05;;;;;;;;;;;;;;;0.79;100.00;100980.19;4935396;29;19922;-66
2022/12/19 05:30:31;;;;;;;;;;;;;;;0.80;100.00;100987.19;4936551;29;19969;-66
2022/12/19 05:32:56;;;;;;;;;;;;;;;0.83;100.00;100988.16;4936129;29;19959;-66
2022/12/19 05:35:21;;;;;;;;;;;;;;;0.87;100.00;100986.47;4935213;29;19910;-64
2022/12/19 05:37:47;;;;;;;;;;;;;;;0.92;100.00;100988.34;4936325;28;19922;-64
2022/12/19 05:40:12;;;;;;;;;;;;;;;0.91;100.00;100983.97;4935534;29;20390;-65
2022/12/19 05:42:37;;;;;;;;;;;;;;;0.93;100.00;100989.22;4932504;29;19929;-66
2022/12/19 05:45:03;;;;;;;;;;;;;;;0.95;100.00;100984.91;4935165;29;19943;-66
2022/12/19 05:47:28;;;;;;;;;;;;;;;0.98;100.00;100990.22;4935573;29;19910;-66
2022/12/19 05:49:53;;;;;;;;;;;;;;;0.97;100.00;100981.44;4935397;29;19922;-67
2022/12/19 05:52:18;;;;;;;;;;;;;;;1.01;100.00;100983.31;4936195;29;20453;-67
2022/12/19 05:54:44;;;;;;;;;;;;;;;1.02;100.00;100992.06;4935374;29;19918;-66
2022/12/19 05:57:10;;;;;;;;;;;;;;;1.00;100.00;100980.66;4935126;29;19915;-66
2022/12/19 05:59:35;;;;;;;;;;;;;;;0.98;100.00;100985.88;4936474;29;19969;-66
2022/12/19 06:02:00;;;;;;;;;;;;;;;0.98;100.00;100993.72;4937442;29;19937;-66
2022/12/19 06:04:25;;;;;;;;;;;;;;;1.01;100.00;100987.66;4934920;29;19934;-66
2022/12/19 06:06:51;;;;;;;;;;;;;;;1.02;100.00;100994.66;4935956;29;20293;-66
2022/12/19 06:09:16;;;;;;;;;;;;;;;1.03;100.00;100985.94;4935048;29;19965;-66
2022/12/19 06:11:41;;;;;;;;;;;;;;;1.07;100.00;100993.03;4934905;29;19914;-66
2022/12/19 06:14:06;;;;;;;;;;;;;;;1.09;100.00;100996.53;4965304;28;19914;-66
2022/12/19 06:16:32;;;;;;;;;;;;;;;1.08;100.00;100990.44;4936778;29;19958;-67
2022/12/19 06:18:57;;;;;;;;;;;;;;;1.11;100.00;100992.22;4965821;28;19915;-66
2022/12/19 06:21:23;;;;;;;;;;;;;;;1.12;100.00;100987.00;4934505;29;19918;-66
2022/12/19 06:23:49;;;;;;;;;;;;;;;1.12;100.00;100999.25;4967699;28;19993;-66
2022/12/19 06:26:15;;;;;;;;;;;;;;;1.13;100.00;100993.16;4934802;29;19997;-65
2022/12/19 06:28:40;;;;;;;;;;;;;;;1.16;100.00;100999.34;4943004;29;19914;-66
2022/12/19 06:31:06;;;;;;;;;;;;;;;1.19;100.00;100998.50;4942711;29;19922;-66
2022/12/19 06:33:32;;;;;;;;;;;;;;;1.17;100.00;100997.63;4934696;29;20438;-66
2022/12/19 06:36:01;;;;;;;;;;;;;;;1.19;100.00;100988.03;4925151;29;19915;-66
2022/12/19 06:38:27;;;;;;;;;;;;;;;1.22;100.00;100977.59;4934446;29;19915;-66
2022/12/19 06:43:36;;;;;;;;;;;;;;;1.29;100.00;100975.16;4935856;29;20444;-67
2022/12/19 06:46:01;;;;;;;;;;;;;;;1.26;100.00;100979.44;4933944;29;19914;-66
2022/12/19 06:48:26;;;;;;;;;;;;;;;1.28;100.00;100988.22;4934404;29;19925;-67
2022/12/19 06:50:52;;;;;;;;;;;;;;;1.31;100.00;100972.56;4936137;29;19918;-66
2022/12/19 06:53:17;;;;;;;;;;;;;;;1.33;100.00;100976.97;4934353;29;20357;-67
2022/12/19 06:55:43;;;;;;;;;;;;;;;1.37;100.00;100983.16;4965239;28;19918;-66
2022/12/19 06:58:08;;;;;;;;;;;;;;;1.40;100.00;100980.56;4936760;29;20668;-67
2022/12/19 07:00:34;;;;;;;;;;;;;;;1.42;100.00;100981.50;4934298;29;19911;-68
2022/12/19 07:03:00;;;;;;;;;;;;;;;1.46;100.00;100977.19;4934064;29;20657;-66
2022/12/19 07:05:25;;;;;;;;;;;;;;;1.47;100.00;100989.47;4936391;28;19969;-65
2022/12/19 07:07:51;;;;;;;;;;;;;;;1.46;100.00;100982.44;4934314;29;20294;-65
2022/12/19 07:10:16;;;;;;;;;;;;;;;1.45;100.00;100976.31;4936123;29;20358;-64
2022/12/19 07:12:42;;;;;;;;;;;;;;;1.47;100.00;100990.34;4933786;29;19926;-64
2022/12/19 07:15:07;;;;;;;;;;;;;;;1.47;100.00;100995.56;4934001;29;19915;-66
2022/12/19 07:17:35;;;;;;;;;;;;;;;1.47;100.00;101006.06;4937744;29;19922;-65
2022/12/19 07:20:00;;;;;;;;;;;;;;;1.46;100.00;100993.81;4932347;29;20374;-65
2022/12/19 07:22:29;;;;;;;;;;;;;;;1.47;100.00;100986.84;4933404;29;19921;-65
2022/12/19 07:24:55;;;;;;;;;;;;;;;1.46;100.00;101000.78;4933835;29;19918;-65
2022/12/19 07:27:21;;;;;;;;;;;;;;;1.49;100.00;100992.97;4933505;29;19993;-65
2022/12/19 07:29:47;;;;;;;;;;;;;;;1.49;100.00;100993.88;4931347;29;19921;-65
2022/12/19 07:32:12;;;;;;;;;;;;;;;1.57;100.00;101008.00;4934697;29;19922;-65
2022/12/19 07:34:37;;;;;;;;;;;;;;;1.59;100.00;101011.56;4932099;29;19915;-66
2022/12/19 07:37:02;;;;;;;;;;;;;;;1.57;100.00;101010.63;4933730;29;19914;-66
2022/12/19 07:39:28;;;;;;;;;;;;;;;1.59;100.00;101016.78;4933622;29;19910;-66
2022/12/19 07:41:53;;;;;;;;;;;;;;;1.66;100.00;101018.69;4935820;29;20271;-65
2022/12/19 07:44:18;;;;;;;;;;;;;;;1.62;100.00;101010.72;4934002;29;20001;-66
2022/12/19 07:46:43;;;;;;;;;;;;;;;1.64;100.00;101020.41;4935279;29;19914;-65
2022/12/19 07:49:09;;;;;;;;;;;;;;;1.70;100.00;101023.13;4934391;29;19997;-65
2022/12/19 07:51:34;;;;;;;;;;;;;;;1.73;100.00;101024.94;4934693;29;19969;-65
2022/12/19 07:53:59;;;;;;;;;;;;;;;1.75;100.00;101018.84;4934635;29;20421;-66
2022/12/19 07:56:25;;;;;;;;;;;;;;;1.80;100.00;101009.31;4933778;29;19915;-65
2022/12/19 07:58:51;;;;;;;;;;;;;;;1.86;100.00;101012.03;4927132;29;20010;-66
2022/12/19 08:01:16;;;;;;;;;;;;;;;1.89;100.00;101006.00;4933277;29;20001;-66
2022/12/19 08:03:41;;;;;;;;;;;;;;;1.89;100.00;101012.13;4925370;29;19914;-66
2022/12/19 08:06:07;;;;;;;;;;;;;;;1.92;100.00;101006.94;4916159;29;20025;-66
2022/12/19 08:08:32;;;;;;;;;;;;;;;1.99;100.00;101002.69;4937325;29;20632;-66
2022/12/19 08:11:08;;;;;;;;;;;;;;;2.03;100.00;101005.38;4934808;29;19922;-66
2022/12/19 08:13:33;;;;;;;;;;;;;;;2.06;100.00;100992.28;4936787;29;19927;-66
2022/12/19 08:15:59;;;;;;;;;;;;;;;2.09;100.00;100994.97;4934458;29;20354;-66
2022/12/19 08:18:24;;;;;;;;;;;;;;;2.08;100.00;100998.47;4965893;28;19914;-66
2022/12/19 08:20:50;;;;;;;;;;;;;;;2.13;100.00;100991.56;4931922;29;19962;-66
2022/12/19 08:23:15;;;;;;;;;;;;;;;2.18;100.00;100995.13;4916926;29;19967;-66
2022/12/19 08:25:40;;;;;;;;;;;;;;;2.24;100.00;101000.47;4930731;29;19919;-66
2022/12/19 08:28:06;;;;;;;;;;;;;;;2.25;100.00;100991.75;4916175;29;19915;-66
2022/12/19 08:30:31;;;;;;;;;;;;;;;2.30;100.00;100994.44;4920847;29;20005;-66
2022/12/19 08:32:56;;;;;;;;;;;;;;;2.32;100.00;100988.34;4935016;29;19922;-66
2022/12/19 08:35:21;;;;;;;;;;;;;;;2.43;100.00;100978.94;4933742;29;19911;-66
2022/12/19 08:37:47;;;;;;;;;;;;;;;2.53;100.00;100977.31;4935433;29;20009;-66
2022/12/19 08:40:12;;;;;;;;;;;;;;;2.70;100.00;100967.94;4916608;29;19918;-67
2022/12/19 08:42:37;;;;;;;;;;;;;;;2.78;100.00;100968.03;4918738;29;20389;-67
2022/12/19 08:45:03;;;;;;;;;;;;;;;2.82;100.00;100957.59;4933581;29;19922;-67
2022/12/19 08:47:28;;;;;;;;;;;;;;;2.92;100.00;100964.72;4933641;29;19998;-68
2022/12/19 08:49:53;;;;;;;;;;;;;;;2.96;100.00;100969.19;4934836;29;19919;-68
2022/12/19 08:52:18;;;;;;;;;;;;;;;2.98;100.00;100956.06;4933885;29;19925;-67
2022/12/19 08:54:44;;;;;;;;;;;;;;;2.93;100.00;100973.50;4935694;29;19916;-67
2022/12/19 08:57:09;;;;;;;;;;;;;;;2.87;99.60;100966.41;4923835;29;20333;-67
2022/12/19 08:59:34;;;;;;;;;;;;;;;2.90;99.80;100962.97;4915286;29;19950;-68
2022/12/19 09:02:00;;;;;;;;;;;;;;;2.92;99.61;100975.25;4933939;29;19915;-68
2022/12/19 09:04:25;;;;;;;;;;;;;;;2.89;99.81;100982.19;4931662;29;19933;-68
2022/12/19 09:06:50;;;;;;;;;;;;;;;2.91;99.42;100973.50;4936279;29;20021;-68
2022/12/19 09:09:16;;;;;;;;;;;;;;;3.01;99.67;100963.97;4934035;29;19918;-67
2022/12/19 09:11:41;;;;;;;;;;;;;;;3.11;99.30;100973.75;4933521;29;20438;-69
2022/12/19 09:14:06;;;;;;;;;;;;;;;3.10;98.96;100957.06;4930141;29;19941;-68
2022/12/19 09:16:32;;;;;;;;;;;;;;;3.09;98.49;100941.28;4914347;29;19922;-69
2022/12/19 09:19:00;;;;;;;;;;;;;;;3.18;98.92;100936.16;4956705;28;19919;-70
2022/12/19 09:21:27;;;;;;;;;;;;;;;3.33;98.85;100938.94;4934791;29;19919;-69
2022/12/19 09:23:53;;;;;;;;;;;;;;;3.44;98.53;100945.22;4933365;29;19917;-70
2022/12/19 09:26:19;;;;;;;;;;;;;;;3.58;97.97;100946.22;4933805;29;19919;-69
2022/12/19 09:28:46;;;;;;;;;;;;;;;3.73;97.79;100952.53;4933799;29;19918;-70
2022/12/19 09:31:13;;;;;;;;;;;;;;;3.76;97.61;100947.28;4935953;29;19915;-71
2022/12/19 09:33:38;;;;;;;;;;;;;;;3.91;97.24;100949.19;4935181;29;19923;-71
2022/12/19 09:36:05;;;;;;;;;;;;;;;4.11;96.95;100949.34;4963806;28;19910;-71
2022/12/19 09:38:31;;;;;;;;;;;;;;;4.24;96.52;100938.03;4933926;29;20061;-71
2022/12/19 09:40:59;;;;;;;;;;;;;;;4.31;95.36;100945.13;4932507;29;20258;-71
2022/12/19 09:43:38;;;;;;;;;;;;;;;4.39;94.37;100944.31;4934152;29;20832;-70
2022/12/19 09:47:22;;;;;;;;;;;;;;;4.41;94.12;100942.59;5108024;27;19920;-71
2022/12/19 09:49:48;;;;;;;;;;;;;;;4.47;93.20;100939.97;5098452;28;20613;-71
2022/12/19 09:52:16;;;;;;;;;;;;;;;4.44;92.65;100934.69;5107171;28;19990;-72
2022/12/19 09:54:42;;;;;;;;;;;;;;;4.36;91.46;100922.34;5102931;28;20654;-71
2022/12/19 09:57:12;;;;;;;;;;;;;;;4.32;90.90;100926.69;5098525;28;19916;-71
2022/12/19 09:59:43;;;;;;;;;;;;;;;4.26;90.83;100926.66;5106262;28;19916;-71
2022/12/19 10:02:27;;;;;;;;;;;;;;;4.35;90.99;100933.75;5098066;28;20014;-71
2022/12/19 10:05:00;;;;;;;;;;;;;;;4.42;90.60;100925.91;5092157;28;19926;-71
2022/12/19 10:07:25;;;;;;;;;;;;;;;4.37;89.68;100922.34;5094343;28;21428;-70
2022/12/19 10:09:52;;;;;;;;;;;;;;;4.45;89.92;100925.91;5097765;28;20010;-70
2022/12/19 10:12:30;;;;;;;;;;;;;;;4.52;89.69;100921.56;5094214;28;19924;-70
2022/12/19 10:15:01;;;;;;;;;;;;;;;4.68;89.01;100923.44;5099369;28;20542;-70
2022/12/19 10:17:45;;;;;;;;;;;;;;;4.70;88.83;100909.38;5090356;28;19928;-69
2022/12/19 10:20:28;;;;;;;;;;;;;;;4.81;88.51;100904.16;5086997;28;20401;-69
2022/12/19 10:22:53;;;;;;;;;;;;;;;4.95;87.89;100895.44;5089372;28;19966;-69
2022/12/19 10:25:28;;;;;;;;;;;;;;;5.10;87.89;100887.59;5086962;28;19920;-69
2022/12/19 10:28:08;;;;;;;;;;;;;;;5.23;87.30;100886.75;5087548;28;20291;-69
2022/12/19 10:30:37;;;;;;;;;;;;;;;5.31;86.01;100900.84;5090865;28;21413;-69
2022/12/19 10:33:37;;;;;;;;;;;;;;;5.38;85.10;100894.72;5091741;28;19968;-69
2022/12/19 10:36:08;;;;;;;;;;;;;;;5.30;84.39;100906.13;5064109;28;19923;-69
2022/12/19 10:38:37;;;;;;;;;;;;;;;5.29;84.80;100894.66;5086238;28;19960;-69
2022/12/19 10:41:10;;;;;;;;;;;;;;;5.52;85.17;100892.06;5090591;28;19912;-68
2022/12/19 10:43:35;;;;;;;;;;;;;;;5.72;84.66;100890.34;5090156;28;19916;-68
2022/12/19 10:46:05;;;;;;;;;;;;;;;5.85;84.42;100880.72;5086605;28;19925;-68
2022/12/19 10:48:30;;;;;;;;;;;;;;;6.26;83.56;100878.94;5087910;28;20352;-68
2022/12/19 10:50:55;;;;;;;;;;;;;;;6.29;80.96;100874.50;5101366;28;19969;-68
2022/12/19 10:53:25;;;;;;;;;;;;;;;6.58;81.12;100885.00;5086382;28;19916;-67
2022/12/19 10:55:52;;;;;;;;;;;;;;;6.89;80.50;100878.72;5091750;28;19948;-67
2022/12/19 10:58:23;;;;;;;;;;;;;;;7.25;78.44;100873.25;5095060;28;19916;-67
2022/12/19 11:01:08;;;;;;;;;;;;;;;7.41;76.15;100868.78;5087926;28;19920;-67
2022/12/19 11:03:34;;;;;;;;;;;;;;;7.67;74.65;100854.47;5082221;28;19918;-67
2022/12/19 11:06:01;;;;;;;;;;;;;;;8.15;72.40;100860.25;5093409;28;19950;-66
2022/12/19 11:08:28;;;;;;;;;;;;;;;8.07;69.30;100849.72;5094069;28;19916;-65
2022/12/19 11:10:55;;;;;;;;;;;;;;;7.75;69.11;100850.00;5081855;28;19920;-66
2022/12/19 11:13:28;;;;;;;;;;;;;;;7.34;70.01;100862.66;5071411;28;19920;-66
2022/12/19 11:15:57;;;;;;;;;;;;;;;7.02;72.81;100859.28;5075326;28;19931;-65
2022/12/19 11:18:23;;;;;;;;;;;;;;;6.85;73.99;100854.97;5073674;28;19920;-64
2022/12/19 11:20:59;;;;;;;;;;;;;;;6.59;75.19;100861.22;5087770;28;19916;-64
2022/12/19 11:23:26;;;;;;;;;;;;;;;6.35;75.90;100874.50;5078606;28;19965;-65
2022/12/19 11:25:58;;;;;;;;;;;;;;;6.20;76.49;100863.06;5092783;28;19978;-65
2022/12/19 11:28:35;;;;;;;;;;;;;;;6.20;77.06;100849.88;5087136;28;19924;-64
2022/12/19 11:31:21;;;;;;;;;;;;;;;6.14;77.67;100842.84;5093323;28;19919;-65
2022/12/19 11:33:52;;;;;;;;;;;;;;;6.09;79.22;100828.78;5088849;28;19959;-64
2022/12/19 11:36:33;;;;;;;;;;;;;;;6.12;80.49;100830.50;5091661;28;19912;-65
2022/12/19 11:38:59;;;;;;;;;;;;;;;6.17;80.79;100828.75;5091602;28;19918;-65
2022/12/19 11:41:34;;;;;;;;;;;;;;;6.12;80.96;100817.31;5074894;28;19996;-65
2022/12/19 11:44:02;;;;;;;;;;;;;;;6.15;81.07;100809.38;5072272;28;19916;-64
2022/12/19 11:46:44;;;;;;;;;;;;;;;6.15;82.33;100820.81;5072081;28;19925;-65
2022/12/19 11:49:24;;;;;;;;;;;;;;;6.14;81.90;100812.91;5078388;28;19936;-64
2022/12/19 11:51:54;;;;;;;;;;;;;;;6.10;82.13;100806.75;5072117;28;19912;-64
2022/12/19 11:54:27;;;;;;;;;;;;;;;6.10;82.77;100804.09;5072230;28;19950;-65
2022/12/19 11:56:52;;;;;;;;;;;;;;;6.15;81.86;100804.09;5091164;28;19912;-65
2022/12/19 11:59:19;;;;;;;;;;;;;;;6.15;83.29;100804.09;5092405;28;19923;-65
2022/12/19 12:01:53;;;;;;;;;;;;;;;6.27;82.53;100801.44;5080422;28;19924;-65
2022/12/19 12:04:34;;;;;;;;;;;;;;;6.33;83.07;100801.41;5098118;28;19947;-65
2022/12/19 12:06:59;;;;;;;;;;;;;;;6.26;82.33;100804.97;5099368;28;19920;-66
2022/12/19 12:09:39;;;;;;;;;;;;;;;6.22;82.96;100793.53;5071247;28;20303;-65
2022/12/19 12:12:24;;;;;;;;;;;;;;;6.26;83.57;100791.75;5072153;28;20371;-66
2022/12/19 12:15:08;;;;;;;;;;;;;;;6.31;83.28;100787.34;5090026;28;19916;-65
2022/12/19 12:17:33;;;;;;;;;;;;;;;6.20;82.20;100779.44;5091654;28;19958;-65
2022/12/19 12:19:58;;;;;;;;;;;;;;;6.25;83.23;100782.94;5087371;28;19947;-65
2022/12/19 12:22:30;;;;;;;;;;;;;;;6.33;82.99;100783.78;5090242;28;19939;-65
2022/12/19 12:25:03;;;;;;;;;;;;;;;6.37;82.50;100782.03;5089610;28;19916;-66
2022/12/19 12:27:28;;;;;;;;;;;;;;;6.29;82.92;100784.69;5091933;28;19912;-66
2022/12/19 12:30:01;;;;;;;;;;;;;;;6.51;82.79;100778.44;5091737;28;20271;-66
2022/12/19 12:32:29;;;;;;;;;;;;;;;6.62;82.74;100773.13;5083789;28;19924;-66
2022/12/19 12:35:02;;;;;;;;;;;;;;;6.69;81.53;100774.81;5092198;28;19919;-66
2022/12/19 12:37:40;;;;;;;;;;;;;;;6.64;81.43;100784.53;5082867;28;19927;-66
2022/12/19 12:40:20;;;;;;;;;;;;;;;6.65;80.78;100773.09;5072012;28;20398;-66
2022/12/19 12:42:48;;;;;;;;;;;;;;;6.63;80.81;100781.03;5076536;28;19926;-66
2022/12/19 12:45:17;;;;;;;;;;;;;;;6.64;81.37;100776.59;5070677;28;19920;-66
2022/12/19 12:47:46;;;;;;;;;;;;;;;6.59;81.30;100779.28;5071084;28;19923;-66
2022/12/19 12:50:14;;;;;;;;;;;;;;;6.62;81.62;100775.75;5073413;28;20383;-66